createdAt,value
2023-01-09T00:02:57.224Z,6.93
2023-01-09T00:05:59.697Z,6.90
2023-01-09T00:09:02.356Z,6.97
2023-01-09T00:12:05.027Z,6.90
2023-01-09T00:15:08.207Z,6.92
2023-01-09T00:18:10.933Z,6.89
2023-01-09T00:21:14.400Z,6.84
2023-01-09T00:24:17.009Z,6.85
2023-01-09T00:27:19.521Z,6.84
2023-01-09T00:30:21.993Z,6.85
2023-01-09T00:33:42.945Z,6.92
2023-01-09T00:36:45.347Z,6.94
2023-01-09T00:39:48.214Z,7.00
2023-01-09T00:42:55.941Z,6.96
2023-01-09T00:46:00.086Z,7.11
2023-01-09T00:49:04.584Z,7.17
2023-01-09T00:52:09.929Z,7.32
2023-01-09T00:55:14.225Z,7.28
2023-01-09T00:58:17.013Z,7.44
2023-01-09T01:01:19.607Z,7.47
2023-01-09T01:04:40.522Z,7.52
2023-01-09T01:07:43.426Z,7.63
2023-01-09T01:10:49.003Z,7.72
2023-01-09T01:13:51.965Z,7.62
2023-01-09T01:16:54.484Z,7.67
2023-01-09T01:19:57.228Z,7.71
2023-01-09T01:22:59.839Z,7.68
2023-01-09T01:26:11.328Z,7.91
2023-01-09T01:29:14.234Z,7.78
2023-01-09T01:32:16.796Z,7.60
2023-01-09T01:35:19.300Z,7.73
2023-01-09T01:38:21.967Z,7.65
2023-01-09T01:41:31.083Z,7.58
2023-01-09T01:45:01.341Z,7.75
2023-01-09T01:48:09.608Z,7.66
2023-01-09T01:51:15.680Z,7.72
2023-01-09T01:54:24.655Z,7.74
2023-01-09T01:57:27.145Z,7.81
2023-01-09T02:00:37.124Z,7.75
2023-01-09T02:03:42.250Z,7.71
2023-01-09T02:06:47.236Z,7.56
2023-01-09T02:09:49.953Z,7.69
2023-01-09T02:12:52.499Z,7.60
2023-01-09T02:16:15.153Z,7.67
2023-01-09T02:19:43.892Z,7.60
2023-01-09T02:23:14.431Z,7.53
2023-01-09T02:27:19.086Z,7.52
2023-01-09T02:30:37.416Z,7.55
2023-01-09T02:34:00.466Z,7.48
2023-01-09T02:37:22.064Z,7.47
2023-01-09T02:40:43.511Z,7.50
2023-01-09T02:43:45.884Z,7.47
2023-01-09T02:46:59.146Z,7.46
2023-01-09T02:50:05.212Z,7.39
2023-01-09T02:53:33.889Z,7.31
2023-01-09T02:57:00.942Z,7.36
2023-01-09T03:00:33.093Z,7.32
2023-01-09T03:03:49.080Z,7.30
2023-01-09T03:07:23.925Z,7.30
2023-01-09T03:10:43.172Z,7.22
2023-01-09T03:13:53.565Z,7.17
2023-01-09T03:16:59.630Z,7.18
2023-01-09T03:20:05.278Z,7.20
2023-01-09T03:23:08.344Z,7.12
2023-01-09T03:26:11.520Z,7.17
2023-01-09T03:29:13.968Z,7.10
2023-01-09T03:32:16.322Z,7.14
2023-01-09T03:35:18.784Z,7.09
2023-01-09T03:38:21.328Z,7.12
2023-01-09T03:41:24.080Z,7.05
2023-01-09T03:44:26.531Z,7.02
2023-01-09T03:47:28.992Z,7.00
2023-01-09T03:50:31.766Z,7.02
2023-01-09T03:53:34.336Z,7.08
2023-01-09T03:56:36.779Z,6.99
2023-01-09T03:59:39.919Z,7.08
2023-01-09T04:02:43.468Z,7.07
2023-01-09T04:05:48.027Z,7.12
2023-01-09T04:08:50.644Z,7.06
2023-01-09T04:11:54.103Z,7.08
2023-01-09T04:14:56.584Z,7.02
2023-01-09T04:17:59.056Z,7.04
2023-01-09T04:21:01.580Z,7.04
2023-01-09T04:24:04.469Z,7.01
2023-01-09T04:27:06.914Z,6.95
2023-01-09T04:30:09.968Z,7.05
2023-01-09T04:33:12.410Z,7.03
2023-01-09T04:36:18.237Z,7.15
2023-01-09T04:39:21.545Z,7.16
2023-01-09T04:42:24.578Z,7.12
2023-01-09T04:45:27.176Z,7.10
2023-01-09T04:48:29.582Z,7.09
2023-01-09T04:51:32.464Z,7.11
2023-01-09T04:54:34.939Z,7.14
2023-01-09T04:57:37.825Z,7.16
2023-01-09T05:00:40.427Z,7.19
2023-01-09T05:03:42.905Z,7.18
2023-01-09T05:06:45.319Z,7.13
2023-01-09T05:09:48.016Z,7.17
2023-01-09T05:12:52.566Z,7.10
2023-01-09T05:15:55.009Z,7.06
2023-01-09T05:18:57.943Z,7.06
2023-01-09T05:22:00.389Z,7.10
2023-01-09T05:25:03.269Z,7.12
2023-01-09T05:28:05.737Z,7.01
2023-01-09T05:31:08.215Z,7.05
2023-01-09T05:34:10.578Z,7.01
2023-01-09T05:37:13.136Z,7.01
2023-01-09T05:40:15.820Z,7.09
2023-01-09T05:43:18.283Z,7.09
2023-01-09T05:46:20.953Z,7.03
2023-01-09T05:49:23.531Z,7.12
2023-01-09T05:52:26.145Z,7.13
2023-01-09T05:55:28.684Z,7.13
2023-01-09T05:58:31.128Z,7.21
2023-01-09T06:01:33.709Z,7.14
2023-01-09T06:04:36.331Z,7.11
2023-01-09T06:07:40.761Z,7.17
2023-01-09T06:10:46.008Z,7.18
2023-01-09T06:13:48.497Z,7.14
2023-01-09T06:16:50.949Z,7.04
2023-01-09T06:19:53.455Z,7.17
2023-01-09T06:22:55.981Z,7.13
2023-01-09T06:25:58.526Z,7.06
2023-01-09T06:29:01.814Z,7.13
2023-01-09T06:32:05.225Z,7.18
2023-01-09T06:35:08.117Z,7.17
2023-01-09T06:38:11.011Z,7.24
2023-01-09T06:41:14.008Z,7.18
2023-01-09T06:44:16.656Z,7.23
2023-01-09T06:47:19.432Z,7.31
2023-01-09T06:50:22.083Z,7.34
2023-01-09T06:53:24.844Z,7.31
2023-01-09T06:56:27.980Z,7.28
2023-01-09T06:59:31.321Z,7.20
2023-01-09T07:02:33.868Z,7.28
2023-01-09T07:05:42.957Z,7.34
2023-01-09T07:08:47.836Z,7.30
2023-01-09T07:11:50.931Z,7.37
2023-01-09T07:14:53.950Z,7.32
2023-01-09T07:17:57.237Z,7.36
2023-01-09T07:21:00.165Z,7.48
2023-01-09T07:24:02.624Z,7.46
2023-01-09T07:27:05.244Z,7.62
2023-01-09T07:30:08.961Z,7.65
2023-01-09T07:33:11.549Z,7.60
2023-01-09T07:36:14.456Z,7.73
2023-01-09T07:39:17.313Z,7.68
2023-01-09T07:42:19.946Z,7.75
2023-01-09T07:45:22.519Z,7.89
2023-01-09T07:48:25.505Z,7.92
2023-01-09T07:51:28.132Z,7.99
2023-01-09T07:54:31.204Z,8.09
2023-01-09T07:57:33.697Z,8.07
2023-01-09T08:00:36.389Z,8.07
2023-01-09T08:03:39.011Z,8.07
2023-01-09T08:06:41.433Z,8.11
2023-01-09T08:09:43.923Z,8.08
2023-01-09T08:12:47.722Z,8.16
2023-01-09T08:15:50.517Z,8.10
2023-01-09T08:18:53.093Z,8.07
2023-01-09T08:21:55.747Z,8.11
2023-01-09T08:24:58.338Z,8.08
2023-01-09T08:28:01.064Z,8.04
2023-01-09T08:31:03.625Z,8.09
2023-01-09T08:34:06.580Z,8.08
2023-01-09T08:37:09.200Z,8.07
2023-01-09T08:40:13.513Z,8.04
2023-01-09T08:43:34.537Z,7.90
2023-01-09T08:46:56.199Z,7.79
2023-01-09T08:49:59.020Z,7.75
2023-01-09T08:53:01.618Z,7.80
2023-01-09T08:56:04.283Z,7.80
2023-01-09T08:59:06.722Z,7.65
2023-01-09T09:02:10.206Z,7.61
2023-01-09T09:05:12.660Z,7.60
2023-01-09T09:08:17.452Z,7.63
2023-01-09T09:11:20.142Z,7.53
2023-01-09T09:14:41.459Z,7.49
2023-01-09T09:17:44.698Z,7.58
2023-01-09T09:20:47.226Z,7.57
2023-01-09T09:23:49.755Z,7.48
2023-01-09T09:26:52.156Z,7.52
2023-01-09T09:29:54.690Z,7.51
2023-01-09T09:32:57.401Z,7.53
2023-01-09T09:36:00.624Z,7.54
2023-01-09T09:39:03.265Z,7.56
2023-01-09T09:42:55.537Z,7.74
2023-01-09T09:46:18.677Z,7.64
2023-01-09T09:49:35.627Z,7.58
2023-01-09T09:52:53.664Z,7.42
2023-01-09T09:55:57.751Z,7.40
2023-01-09T09:59:05.192Z,7.38
2023-01-09T10:02:50.600Z,7.45
2023-01-09T10:05:54.446Z,7.32
2023-01-09T10:09:41.441Z,7.25
2023-01-09T10:12:53.828Z,7.22
2023-01-09T10:16:15.168Z,7.24
2023-01-09T10:19:20.944Z,7.22
2023-01-09T10:22:41.720Z,7.19
2023-01-09T10:26:00.825Z,7.31
2023-01-09T10:29:41.781Z,7.21
2023-01-09T10:33:03.815Z,7.20
2023-01-09T10:36:15.291Z,7.29
2023-01-09T10:39:35.316Z,7.24
2023-01-09T10:42:41.047Z,7.22
2023-01-09T10:45:54.599Z,7.11
2023-01-09T10:49:02.797Z,7.12
2023-01-09T10:52:18.467Z,7.08
2023-01-09T10:55:39.915Z,7.04
2023-01-09T10:58:42.365Z,6.96
2023-01-09T11:01:45.127Z,6.94
2023-01-09T11:04:47.922Z,6.78
2023-01-09T11:07:56.220Z,6.83
2023-01-09T11:11:01.006Z,6.95
2023-01-09T11:14:15.173Z,6.99
2023-01-09T11:17:21.040Z,7.02
2023-01-09T11:20:23.475Z,7.22
2023-01-09T11:23:33.553Z,7.21
2023-01-09T11:26:36.384Z,7.13
2023-01-09T11:29:41.617Z,7.05
2023-01-09T11:32:45.983Z,7.15
2023-01-09T11:36:01.938Z,7.15
2023-01-09T11:39:04.557Z,7.11
2023-01-09T11:42:18.977Z,7.12
2023-01-09T11:45:34.514Z,7.19
2023-01-09T11:48:54.974Z,7.26
2023-01-09T11:52:24.781Z,7.17
2023-01-09T11:55:32.057Z,7.17
2023-01-09T11:58:40.680Z,7.35
2023-01-09T12:02:13.972Z,7.22
2023-01-09T12:05:29.039Z,7.26
2023-01-09T12:08:37.811Z,7.25
2023-01-09T12:11:59.062Z,7.17
2023-01-09T12:15:29.471Z,7.20
2023-01-09T12:18:37.997Z,7.39
2023-01-09T12:21:58.184Z,7.39
2023-01-09T12:25:20.995Z,7.42
2023-01-09T12:28:38.587Z,7.53
2023-01-09T12:32:06.048Z,7.55
2023-01-09T12:35:26.903Z,7.56
2023-01-09T12:38:54.555Z,7.55
2023-01-09T12:42:00.068Z,7.59
2023-01-09T12:45:32.619Z,7.50
2023-01-09T12:48:57.832Z,7.43
2023-01-09T12:52:06.931Z,7.40
2023-01-09T12:55:15.648Z,7.45
2023-01-09T12:58:34.028Z,7.40
2023-01-09T13:01:45.228Z,7.40
2023-01-09T13:05:08.933Z,7.46
2023-01-09T13:08:20.445Z,7.40
2023-01-09T13:11:38.145Z,7.40
2023-01-09T13:14:56.460Z,7.77
2023-01-09T13:18:09.699Z,7.63
2023-01-09T13:21:13.640Z,7.55
2023-01-09T13:24:24.714Z,7.58
2023-01-09T13:27:34.515Z,7.64
2023-01-09T13:30:54.380Z,7.38
2023-01-09T13:33:59.212Z,7.32
2023-01-09T13:37:01.934Z,7.37
2023-01-09T13:40:26.517Z,7.42
2023-01-09T13:43:53.614Z,7.33
2023-01-09T13:46:59.921Z,7.14
2023-01-09T13:50:26.953Z,7.15
2023-01-09T13:53:31.794Z,7.19
2023-01-09T13:57:13.349Z,7.22
2023-01-09T14:00:36.934Z,7.32
2023-01-09T14:03:39.518Z,7.39
2023-01-09T14:06:44.920Z,7.32
2023-01-09T14:09:54.537Z,7.25
2023-01-09T14:12:58.267Z,7.28
2023-01-09T14:16:10.721Z,7.32
2023-01-09T14:19:26.741Z,7.29
2023-01-09T14:22:45.698Z,7.21
2023-01-09T14:26:16.003Z,7.22
2023-01-09T14:29:38.183Z,7.29
2023-01-09T14:32:44.851Z,7.22
2023-01-09T14:36:10.306Z,7.32
2023-01-09T14:39:14.053Z,7.32
2023-01-09T14:42:23.298Z,7.34
2023-01-09T14:45:27.233Z,7.37
2023-01-09T14:48:31.767Z,7.40
2023-01-09T14:51:38.733Z,7.35
2023-01-09T14:54:43.799Z,7.28
2023-01-09T14:57:46.323Z,7.15
2023-01-09T15:00:53.653Z,7.11
2023-01-09T15:04:01.417Z,7.19
2023-01-09T15:07:06.419Z,7.13
2023-01-09T15:10:17.383Z,7.12
2023-01-09T15:13:45.006Z,7.05
2023-01-09T15:16:47.540Z,7.06
2023-01-09T15:19:50.738Z,7.00
2023-01-09T15:22:54.863Z,7.15
2023-01-09T15:26:12.446Z,7.14
2023-01-09T15:29:20.569Z,7.19
2023-01-09T15:32:27.713Z,7.03
2023-01-09T15:35:30.505Z,6.97
2023-01-09T15:38:36.026Z,7.05
2023-01-09T15:41:57.210Z,7.03
2023-01-09T15:44:59.742Z,7.02
2023-01-09T15:48:26.636Z,7.04
2023-01-09T15:51:29.654Z,6.98
2023-01-09T15:54:33.538Z,6.90
2023-01-09T15:57:36.165Z,6.80
2023-01-09T16:00:41.970Z,6.78
2023-01-09T16:03:44.604Z,6.76
2023-01-09T16:06:50.480Z,6.72
2023-01-09T16:09:53.000Z,6.81
2023-01-09T16:12:55.834Z,6.90
2023-01-09T16:16:01.397Z,6.73
2023-01-09T16:19:04.194Z,6.71
2023-01-09T16:22:28.896Z,6.83
2023-01-09T16:25:34.200Z,6.73
2023-01-09T16:28:40.715Z,6.93
2023-01-09T16:31:43.310Z,6.82
2023-01-09T16:34:52.247Z,6.84
2023-01-09T16:37:54.867Z,6.65
2023-01-09T16:41:31.567Z,6.75
2023-01-09T16:44:34.345Z,6.88
2023-01-09T16:47:36.805Z,6.75
2023-01-09T16:50:40.302Z,6.78
2023-01-09T16:53:42.985Z,6.71
2023-01-09T16:56:50.751Z,6.78
2023-01-09T16:59:53.258Z,6.77
2023-01-09T17:02:57.342Z,6.90
2023-01-09T17:06:01.457Z,6.99
2023-01-09T17:09:04.017Z,6.97
2023-01-09T17:12:12.478Z,6.82
2023-01-09T17:15:15.253Z,6.82
2023-01-09T17:18:20.213Z,6.81
2023-01-09T17:21:28.924Z,6.83
2023-01-09T17:24:57.757Z,6.82
2023-01-09T17:28:19.462Z,6.83
2023-01-09T17:31:21.924Z,6.93
2023-01-09T17:34:24.400Z,6.96
2023-01-09T17:37:26.874Z,7.02
2023-01-09T17:40:29.651Z,6.99
2023-01-09T17:43:32.812Z,6.89
2023-01-09T17:46:37.659Z,6.85
2023-01-09T17:49:41.804Z,6.95
2023-01-09T17:52:44.761Z,6.84
2023-01-09T17:55:47.258Z,6.94
2023-01-09T17:58:50.100Z,7.04
2023-01-09T18:01:52.644Z,7.08
2023-01-09T18:04:55.162Z,6.93
2023-01-09T18:07:57.756Z,6.83
2023-01-09T18:11:05.091Z,6.95
2023-01-09T18:14:08.860Z,6.82
2023-01-09T18:17:13.115Z,6.88
2023-01-09T18:20:16.094Z,6.83
2023-01-09T18:23:18.825Z,6.81
2023-01-09T18:26:22.215Z,6.90
2023-01-09T18:29:24.973Z,6.91
2023-01-09T18:32:27.480Z,6.99
2023-01-09T18:35:30.955Z,6.91
2023-01-09T18:38:33.901Z,6.80
2023-01-09T18:41:36.606Z,6.83
2023-01-09T18:44:39.475Z,6.96
2023-01-09T18:47:41.989Z,7.01
2023-01-09T18:50:45.883Z,6.97
2023-01-09T18:53:48.974Z,6.95
2023-01-09T18:56:51.749Z,6.91
2023-01-09T18:59:54.465Z,6.90
2023-01-09T19:02:57.237Z,6.82
2023-01-09T19:06:01.279Z,6.82
2023-01-09T19:09:04.180Z,6.82
2023-01-09T19:12:06.950Z,6.75
2023-01-09T19:15:11.597Z,6.83
2023-01-09T19:18:15.769Z,6.72
2023-01-09T19:21:21.196Z,6.86
2023-01-09T19:24:24.604Z,6.77
2023-01-09T19:27:30.602Z,6.86
2023-01-09T19:30:34.803Z,6.95
2023-01-09T19:33:37.756Z,6.89
2023-01-09T19:36:40.656Z,6.89
2023-01-09T19:39:43.319Z,6.89
2023-01-09T19:42:45.791Z,6.87
2023-01-09T19:45:48.494Z,6.83
2023-01-09T19:48:51.903Z,6.96
2023-01-09T19:51:55.877Z,6.93
2023-01-09T19:54:58.607Z,6.93
2023-01-09T19:58:01.074Z,6.92
2023-01-09T20:01:11.849Z,6.88
2023-01-09T20:04:17.360Z,6.87
2023-01-09T20:07:21.325Z,6.75
2023-01-09T20:10:23.922Z,6.86
2023-01-09T20:13:26.409Z,6.85
2023-01-09T20:16:30.753Z,6.82
2023-01-09T20:19:33.758Z,6.82
2023-01-09T20:22:36.559Z,6.82
2023-01-09T20:25:39.542Z,6.81
2023-01-09T20:28:42.628Z,6.75
2023-01-09T20:31:45.396Z,6.82
2023-01-09T20:34:47.902Z,6.73
2023-01-09T20:37:51.723Z,6.84
2023-01-09T20:40:54.196Z,6.90
2023-01-09T20:44:24.027Z,6.86
2023-01-09T20:47:26.537Z,6.92
2023-01-09T20:50:29.033Z,6.93
2023-01-09T20:53:31.610Z,6.90
2023-01-09T20:56:36.223Z,6.93
2023-01-09T20:59:39.245Z,7.01
2023-01-09T21:02:41.753Z,6.98
2023-01-09T21:05:44.315Z,6.91
2023-01-09T21:08:47.328Z,6.98
2023-01-09T21:11:50.042Z,6.97
2023-01-09T21:14:52.695Z,6.96
2023-01-09T21:17:55.879Z,6.96
2023-01-09T21:21:02.782Z,6.86
2023-01-09T21:24:07.580Z,6.87
2023-01-09T21:27:10.148Z,6.88
2023-01-09T21:30:13.252Z,6.95
2023-01-09T21:33:22.515Z,6.91
2023-01-09T21:36:25.079Z,6.87
2023-01-09T21:39:27.665Z,6.88
2023-01-09T21:42:48.329Z,6.95
2023-01-09T21:46:19.586Z,6.88
2023-01-09T21:49:25.466Z,6.97
2023-01-09T21:52:28.429Z,6.97
2023-01-09T21:55:33.955Z,6.87
2023-01-09T21:58:36.396Z,6.88
2023-01-09T22:01:39.205Z,6.95
2023-01-09T22:04:43.079Z,6.85
2023-01-09T22:07:45.584Z,6.97
2023-01-09T22:10:55.388Z,6.96
2023-01-09T22:13:58.304Z,6.97
2023-01-09T22:17:00.736Z,6.95
2023-01-09T22:20:03.359Z,6.94
2023-01-09T22:23:05.970Z,6.87
2023-01-09T22:26:13.210Z,6.96
2023-01-09T22:29:16.378Z,6.88
2023-01-09T22:32:18.879Z,6.87
2023-01-09T22:35:21.373Z,6.92
2023-01-09T22:38:23.871Z,6.98
2023-01-09T22:41:29.621Z,6.89
2023-01-09T22:44:32.155Z,6.82
2023-01-09T22:47:34.552Z,6.90
2023-01-09T22:50:37.204Z,6.89
2023-01-09T22:53:39.612Z,6.80
2023-01-09T22:56:42.087Z,6.85
2023-01-09T22:59:45.263Z,6.84
2023-01-09T23:02:48.871Z,6.93
2023-01-09T23:06:05.757Z,6.93
2023-01-09T23:09:08.219Z,6.94
2023-01-09T23:12:10.695Z,6.91
2023-01-09T23:15:13.252Z,6.88
2023-01-09T23:18:15.674Z,6.88
2023-01-09T23:21:18.104Z,6.91
2023-01-09T23:24:20.802Z,6.88
2023-01-09T23:27:23.279Z,6.91
2023-01-09T23:30:25.734Z,6.92
2023-01-09T23:33:28.352Z,6.83
2023-01-09T23:36:30.918Z,6.83
2023-01-09T23:39:33.437Z,6.85
2023-01-09T23:42:54.421Z,6.91
2023-01-09T23:45:56.821Z,6.94
2023-01-09T23:48:59.373Z,6.87
2023-01-09T23:52:04.963Z,6.89
2023-01-09T23:55:08.088Z,6.90
2023-01-09T23:58:11.251Z,7.00
